Weather History for Pratt, KS

Change the Weather History Date:

Wednesday, March 13, 2013

  Actual Average (KP28) Record (KP28)
Temperature  
Mean Temperature 44 °F 46 °F  
Max Temperature 59 °F 58 °F 87 °F (1971)
Min Temperature 30 °F 33 °F 9 °F (1897)
Degree Days  
Heating Degree Days 20 19  
Month to date heating degree days 273  
Since 1 July heating degree days 3802  
Cooling Degree Days 0 0  
Month to date cooling degree days 0  
Year to date cooling degree days 0  
Moisture  
Dew Point 27 °F    
Average Humidity 53    
Maximum Humidity 80    
Minimum Humidity 32    
Precipitation  
Precipitation 0.00 in 0.08 in 3.35 in (1922)
Month to date precipitation 0.92  
Year to date precipitation 2.67  
Snow  
Snow 0.00 in 0.00 in - ()
Month to date snowfall 0.1  
Since 1 July snowfall 8.5  
Snow Depth -    
Sea Level Pressure  
Sea Level Pressure 30.32 in    
Wind  
Wind Speed 7 mph (SSE)    
Max Wind Speed 20 mph    
Max Gust Speed 24 mph    
Visibility 10 miles    
Events      
T = Trace of Precipitation, MM = Missing Value Source: NWS Daily Summary

Daily Weather History Graph

Daily Weather History Graph

Search for Another Location

Airport:

Trip Planner

Search our weather history database for the weather conditions in past years. The results will help you decide how hot, cold, wet, or windy it might be!

Date:

Astronomy

Mar. 13, 2013 Rise Set
Actual Time 7:48 AM CDT 7:40 PM CDT
Civil Twilight 7:22 AM CDT 8:06 PM CDT
Nautical Twilight 6:52 AM CDT 8:37 PM CDT
Astronomical Twilight 6:21 AM CDT 9:07 PM CDT
Moon 8:31 AM CDT (3/13) 9:55 PM CDT (3/13)
Length of Visible Light 12h 44m
Length of Day
11h 51m
Waxing Crescent, 4% of the Moon is Illuminated
Mar 13
Waxing Crescent
Mar 19
First Quarter
Mar 27
Full
Apr 2
Last Quarter
Apr 10
New

Hourly Weather History & Observations

Time (CDT) Temp. Windchill Dew Point Humidity Pressure Visibility Wind Dir Wind Speed Gust Speed Precip Events Conditions
12:15 AM 33.8 °F 29.6 °F 21.2 °F 60% 30.36 in 10.0 mi ENE 4.6 mph - N/A   Clear
12:55 AM 32.0 °F - 23.0 °F 69% 30.38 in 10.0 mi Calm Calm - N/A   Clear
1:15 AM 32.0 °F - 24.8 °F 75% 30.37 in 10.0 mi Calm Calm - N/A   Clear
1:35 AM 33.8 °F - 21.2 °F 60% 30.37 in 10.0 mi Calm Calm - N/A   Clear
1:55 AM 33.8 °F 29.6 °F 19.4 °F 56% 30.37 in 10.0 mi ENE 4.6 mph - N/A   Clear
2:15 AM 33.8 °F 30.8 °F 19.4 °F 56% 30.37 in 10.0 mi East 3.5 mph - N/A   Clear
2:35 AM 33.8 °F 30.8 °F 19.4 °F 56% 30.37 in 10.0 mi ENE 3.5 mph - N/A   Clear
2:55 AM 33.8 °F 30.8 °F 19.4 °F 56% 30.37 in 10.0 mi East 3.5 mph - N/A   Clear
3:15 AM 32.0 °F - 19.4 °F 60% 30.37 in 10.0 mi Calm Calm - N/A   Clear
3:35 AM 32.0 °F - 17.6 °F 55% 30.37 in 10.0 mi Calm Calm - N/A   Clear
3:55 AM 30.2 °F - 21.2 °F 69% 30.37 in 10.0 mi Calm Calm - N/A   Clear
4:15 AM 32.0 °F - 21.2 °F 64% 30.36 in 10.0 mi Calm Calm - N/A   Clear
4:35 AM 32.0 °F - 21.2 °F 64% 30.35 in 10.0 mi Calm Calm - N/A   Clear
4:55 AM 30.2 °F - 23.0 °F 75% 30.36 in 10.0 mi Calm Calm - N/A   Clear
5:15 AM 30.2 °F 25.4 °F 23.0 °F 75% 30.36 in 10.0 mi South 4.6 mph - N/A   Scattered Clouds
5:35 AM 30.2 °F 25.4 °F 24.8 °F 80% 30.36 in 10.0 mi South 4.6 mph - N/A   Mostly Cloudy
5:55 AM 30.2 °F 26.7 °F 23.0 °F 75% 30.37 in 10.0 mi SSW 3.5 mph - N/A   Mostly Cloudy
6:15 AM 30.2 °F 25.4 °F 23.0 °F 75% 30.37 in 10.0 mi South 4.6 mph - N/A   Overcast
6:35 AM 32.0 °F 28.7 °F 21.2 °F 64% 30.37 in 10.0 mi South 3.5 mph - N/A   Overcast
6:55 AM 32.0 °F 27.5 °F 19.4 °F 60% 30.37 in 10.0 mi SE 4.6 mph - N/A   Overcast
7:15 AM 32.0 °F 27.5 °F 21.2 °F 64% 30.37 in 10.0 mi SE 4.6 mph - N/A   Overcast
7:35 AM 32.0 °F 26.4 °F 19.4 °F 60% 30.38 in 10.0 mi SSE 5.8 mph - N/A   Mostly Cloudy
7:55 AM 32.0 °F 27.5 °F 23.0 °F 69% 30.38 in 10.0 mi South 4.6 mph - N/A   Overcast
8:15 AM 32.0 °F 26.4 °F 23.0 °F 69% 30.39 in 10.0 mi South 5.8 mph - N/A   Mostly Cloudy
8:35 AM 32.0 °F - 24.8 °F 75% 30.39 in 10.0 mi Calm Calm - N/A   Scattered Clouds
8:55 AM 33.8 °F 28.6 °F 24.8 °F 70% 30.39 in 10.0 mi South 5.8 mph - N/A   Clear
9:15 AM 37.4 °F 30.8 °F 19.4 °F 48% 30.39 in 10.0 mi South 9.2 mph - N/A   Clear
9:35 AM 37.4 °F 30.8 °F 19.4 °F 48% 30.40 in 10.0 mi SSE 9.2 mph - N/A   Clear
9:55 AM 37.4 °F 30.8 °F 19.4 °F 48% 30.40 in 10.0 mi South 9.2 mph - N/A   Clear
10:15 AM 39.2 °F 30.8 °F 15.8 °F 39% 30.40 in 10.0 mi South 15.0 mph 19.6 mph N/A   Clear
10:35 AM 41.0 °F 34.3 °F 15.8 °F 36% 30.41 in 10.0 mi SSE 11.5 mph - N/A   Clear
10:55 AM 42.8 °F 36.2 °F 17.6 °F 36% 30.41 in 10.0 mi South 12.7 mph 17.3 mph N/A   Clear
11:15 AM 42.8 °F 36.2 °F 19.4 °F 39% 30.41 in 10.0 mi South 12.7 mph - N/A   Clear
11:35 AM 44.6 °F 37.2 °F 19.4 °F 37% 30.39 in 10.0 mi South 17.3 mph - N/A   Clear
11:55 AM 44.6 °F 37.4 °F 19.4 °F 37% 30.38 in 10.0 mi SSE 16.1 mph - N/A   Clear
12:15 PM 46.4 °F 39.5 °F 21.2 °F 37% 30.37 in 10.0 mi SSE 17.3 mph - N/A   Clear
12:35 PM 48.2 °F - 21.2 °F 34% 30.37 in 10.0 mi South 16.1 mph - N/A   Clear
12:55 PM 50.0 °F - 21.2 °F 32% 30.37 in 10.0 mi South 15.0 mph 19.6 mph N/A   Clear
1:15 PM 50.0 °F - 23.0 °F 35% 30.36 in 10.0 mi SSE 15.0 mph 19.6 mph N/A   Clear
1:35 PM 51.8 °F - 26.6 °F 38% 30.34 in 10.0 mi South 19.6 mph - N/A   Clear
1:55 PM 53.6 °F - 28.4 °F 38% 30.33 in 10.0 mi South 18.4 mph 23.0 mph N/A   Clear
2:15 PM 53.6 °F - 28.4 °F 38% 30.32 in 10.0 mi South 19.6 mph 24.2 mph N/A   Clear
2:35 PM 53.6 °F - 30.2 °F 41% 30.31 in 10.0 mi South 13.8 mph 20.7 mph N/A   Clear
2:55 PM 55.4 °F - 30.2 °F 38% 30.31 in 10.0 mi South 16.1 mph 21.9 mph N/A   Clear
3:15 PM 57.2 °F - 32.0 °F 38% 30.30 in 10.0 mi South 11.5 mph 20.7 mph N/A   Clear
3:35 PM 57.2 °F - 32.0 °F 38% 30.29 in 10.0 mi South 12.7 mph - N/A   Clear
3:55 PM 59.0 °F - 32.0 °F 36% 30.29 in 10.0 mi South 8.1 mph - N/A   Clear
4:15 PM 59.0 °F - 33.8 °F 39% 30.27 in 10.0 mi South 15.0 mph 21.9 mph N/A   Clear
4:35 PM 59.0 °F - 32.0 °F 36% 30.27 in 10.0 mi South 12.7 mph - N/A   Clear
4:55 PM 59.0 °F - 32.0 °F 36% 30.26 in 10.0 mi South 13.8 mph 20.7 mph N/A   Clear
5:15 PM 59.0 °F - 33.8 °F 39% 30.26 in 10.0 mi SSE 13.8 mph - N/A   Clear
5:35 PM 59.0 °F - 33.8 °F 39% 30.25 in 10.0 mi South 16.1 mph - N/A   Clear
5:55 PM 59.0 °F - 33.8 °F 39% 30.24 in 10.0 mi SSE 13.8 mph 20.7 mph N/A   Clear
6:15 PM 59.0 °F - 35.6 °F 42% 30.23 in 10.0 mi South 15.0 mph - N/A   Clear
6:35 PM 59.0 °F - 35.6 °F 42% 30.23 in 10.0 mi SSE 12.7 mph - N/A   Clear
6:55 PM 57.2 °F - 37.4 °F 48% 30.23 in 10.0 mi SSE 12.7 mph - N/A   Clear
7:15 PM 55.4 °F - 37.4 °F 51% 30.22 in 10.0 mi SSE 12.7 mph - N/A   Clear
7:35 PM 55.4 °F - 37.4 °F 51% 30.22 in 10.0 mi SSE 13.8 mph - N/A   Clear
7:55 PM 53.6 °F - 37.4 °F 54% 30.22 in 10.0 mi SSE 10.4 mph - N/A   Clear
8:15 PM 53.6 °F - 37.4 °F 54% 30.22 in 10.0 mi South 12.7 mph - N/A   Clear
8:35 PM 51.8 °F - 37.4 °F 58% 30.22 in 10.0 mi South 12.7 mph - N/A   Clear
8:55 PM 51.8 °F - 37.4 °F 58% 30.23 in 10.0 mi SSE 11.5 mph - N/A   Clear
9:15 PM 50.0 °F - 37.4 °F 62% 30.22 in 10.0 mi SSE 12.7 mph 18.4 mph N/A   Clear
9:35 PM 50.0 °F - 35.6 °F 58% 30.22 in 10.0 mi South 15.0 mph 20.7 mph N/A   Clear
9:55 PM 50.0 °F - 35.6 °F 58% 30.23 in 10.0 mi South 11.5 mph - N/A   Clear
10:15 PM 50.0 °F - 35.6 °F 58% 30.23 in 10.0 mi South 12.7 mph - N/A   Clear
10:35 PM 50.0 °F - 35.6 °F 58% 30.23 in 10.0 mi South 13.8 mph 18.4 mph N/A   Clear
10:55 PM 50.0 °F - 35.6 °F 58% 30.23 in 10.0 mi South 13.8 mph - N/A   Clear
11:15 PM 48.2 °F - 35.6 °F 62% 30.23 in 10.0 mi South 16.1 mph 20.7 mph N/A   Clear
11:35 PM 46.4 °F 40.1 °F 35.6 °F 66% 30.23 in 10.0 mi South 15.0 mph - N/A   Clear
11:55 PM 46.4 °F 40.1 °F 35.6 °F 66% 30.23 in 10.0 mi South 15.0 mph - N/A   Clear